sensor_id;sensor_type;location;lat;lon;timestamp;pressure;altitude;pressure_sealevel;temperature;humidity
44349;BME280;30068;50.986;4.564;2023-05-16T00:01:03;102029.94;;;22.70;51.96
44349;BME280;30068;50.986;4.564;2023-05-16T00:03:28;102024.50;;;22.70;51.96
44349;BME280;30068;50.986;4.564;2023-05-16T00:05:54;102021.09;;;22.68;52.07
44349;BME280;30068;50.986;4.564;2023-05-16T00:08:20;102016.66;;;22.67;52.17
44349;BME280;30068;50.986;4.564;2023-05-16T00:10:45;102021.09;;;22.68;51.92
44349;BME280;30068;50.986;4.564;2023-05-16T00:13:10;102026.53;;;22.68;51.89
44349;BME280;30068;50.986;4.564;2023-05-16T00:15:36;102030.28;;;22.67;51.98
44349;BME280;30068;50.986;4.564;2023-05-16T00:18:02;102027.56;;;22.67;52.06
44349;BME280;30068;50.986;4.564;2023-05-16T00:20:27;102021.97;;;22.60;52.26
44349;BME280;30068;50.986;4.564;2023-05-16T00:22:53;102031.28;;;22.66;52.07
44349;BME280;30068;50.986;4.564;2023-05-16T00:25:19;102030.28;;;22.67;52.13
44349;BME280;30068;50.986;4.564;2023-05-16T00:27:44;102025.19;;;22.64;51.81
44349;BME280;30068;50.986;4.564;2023-05-16T00:30:10;102025.19;;;22.64;52.17
44349;BME280;30068;50.986;4.564;2023-05-16T00:32:35;102013.47;;;22.63;52.05
44349;BME280;30068;50.986;4.564;2023-05-16T00:35:01;102025.19;;;22.64;52.21
44349;BME280;30068;50.986;4.564;2023-05-16T00:37:26;102018.91;;;22.63;52.11
44349;BME280;30068;50.986;4.564;2023-05-16T00:39:51;102016.34;;;22.62;52.23
44349;BME280;30068;50.986;4.564;2023-05-16T00:42:19;102020.94;;;22.61;52.00
44349;BME280;30068;50.986;4.564;2023-05-16T00:44:45;102030.97;;;22.61;52.33
44349;BME280;30068;50.986;4.564;2023-05-16T00:47:11;102025.53;;;22.61;52.39
44349;BME280;30068;50.986;4.564;2023-05-16T00:49:36;102028.44;;;22.59;52.03
44349;BME280;30068;50.986;4.564;2023-05-16T00:52:02;102025.72;;;22.59;52.22
44349;BME280;30068;50.986;4.564;2023-05-16T00:54:27;102023.19;;;22.58;52.12
44349;BME280;30068;50.986;4.564;2023-05-16T00:56:54;102021.31;;;22.58;52.28
44349;BME280;30068;50.986;4.564;2023-05-16T00:59:20;102025.91;;;22.58;52.22
44349;BME280;30068;50.986;4.564;2023-05-16T01:01:46;102028.78;;;22.56;52.11
44349;BME280;30068;50.986;4.564;2023-05-16T01:04:12;102022.50;;;22.56;52.16
44349;BME280;30068;50.986;4.564;2023-05-16T01:06:37;102027.94;;;22.56;52.18
44349;BME280;30068;50.986;4.564;2023-05-16T01:09:03;102021.81;;;22.54;52.25
44349;BME280;30068;50.986;4.564;2023-05-16T01:11:35;102023.69;;;22.53;52.00
44349;BME280;30068;50.986;4.564;2023-05-16T01:22:02;102031.53;;;22.48;52.32
44349;BME280;30068;50.986;4.564;2023-05-16T01:24:33;102030.69;;;22.48;52.22
44349;BME280;30068;50.986;4.564;2023-05-16T01:27:02;102030.53;;;22.49;52.17
44349;BME280;30068;50.986;4.564;2023-05-16T01:29:28;102026.09;;;22.48;52.43
44349;BME280;30068;50.986;4.564;2023-05-16T01:31:54;102032.38;;;22.49;52.24
44349;BME280;30068;50.986;4.564;2023-05-16T01:34:19;102026.25;;;22.46;52.46
44349;BME280;30068;50.986;4.564;2023-05-16T01:40:15;102037.16;;;22.46;52.29
44349;BME280;30068;50.986;4.564;2023-05-16T01:42:14;102037.31;;;22.45;52.37
44349;BME280;30068;50.986;4.564;2023-05-16T01:44:42;102039.22;;;22.44;52.57
44349;BME280;30068;50.986;4.564;2023-05-16T01:47:09;102043.81;;;22.44;52.27
44349;BME280;30068;50.986;4.564;2023-05-16T01:49:46;102038.53;;;22.42;52.22
44349;BME280;30068;50.986;4.564;2023-05-16T01:52:16;102040.22;;;22.43;52.19
44349;BME280;30068;50.986;4.564;2023-05-16T01:54:44;102038.53;;;22.42;52.55
44349;BME280;30068;50.986;4.564;2023-05-16T01:57:09;102048.56;;;22.42;52.34
44349;BME280;30068;50.986;4.564;2023-05-16T01:59:37;102047.88;;;22.40;52.35
44349;BME280;30068;50.986;4.564;2023-05-16T02:02:02;102051.44;;;22.40;52.26
44349;BME280;30068;50.986;4.564;2023-05-16T02:04:27;102047.88;;;22.40;52.60
44349;BME280;30068;50.986;4.564;2023-05-16T02:06:53;102054.53;;;22.37;52.54
44349;BME280;30068;50.986;4.564;2023-05-16T02:09:18;102044.31;;;22.39;52.41
44349;BME280;30068;50.986;4.564;2023-05-16T02:11:44;102046.38;;;22.37;52.34
44349;BME280;30068;50.986;4.564;2023-05-16T02:16:36;102044.66;;;22.36;52.70
44349;BME280;30068;50.986;4.564;2023-05-16T02:19:01;102046.53;;;22.36;52.37
44349;BME280;30068;50.986;4.564;2023-05-16T02:21:26;102046.53;;;22.36;52.76
44349;BME280;30068;50.986;4.564;2023-05-16T02:23:51;102054.00;;;22.34;52.71
44349;BME280;30068;50.986;4.564;2023-05-16T02:26:17;102056.91;;;22.32;52.55
44349;BME280;30068;50.986;4.564;2023-05-16T02:28:42;102054.38;;;22.31;52.65
44349;BME280;30068;50.986;4.564;2023-05-16T02:31:08;102054.00;;;22.34;52.37
44349;BME280;30068;50.986;4.564;2023-05-16T02:33:33;102057.91;;;22.31;52.86
44349;BME280;30068;50.986;4.564;2023-05-16T02:35:58;102055.19;;;22.31;52.53
44349;BME280;30068;50.986;4.564;2023-05-16T02:38:24;102061.69;;;22.30;52.45
44349;BME280;30068;50.986;4.564;2023-05-16T02:40:49;102056.41;;;22.29;52.81
44349;BME280;30068;50.986;4.564;2023-05-16T02:43:15;102063.72;;;22.28;52.60
44349;BME280;30068;50.986;4.564;2023-05-16T02:45:40;102071.88;;;22.28;52.80
44349;BME280;30068;50.986;4.564;2023-05-16T02:48:05;102069.16;;;22.28;52.56
44349;BME280;30068;50.986;4.564;2023-05-16T02:50:31;102076.63;;;22.26;52.65
44349;BME280;30068;50.986;4.564;2023-05-16T02:52:56;102078.50;;;22.26;52.42
44349;BME280;30068;50.986;4.564;2023-05-16T02:55:24;102086.66;;;22.26;52.70
44349;BME280;30068;50.986;4.564;2023-05-16T02:57:49;102084.13;;;22.24;52.57
44349;BME280;30068;50.986;4.564;2023-05-16T03:00:15;102095.00;;;22.24;52.65
44349;BME280;30068;50.986;4.564;2023-05-16T03:02:40;102086.00;;;22.24;52.69
44349;BME280;30068;50.986;4.564;2023-05-16T03:05:05;102088.88;;;22.22;52.66
44349;BME280;30068;50.986;4.564;2023-05-16T03:07:31;102088.88;;;22.22;52.76
44349;BME280;30068;50.986;4.564;2023-05-16T03:09:56;102090.06;;;22.20;52.77
44349;BME280;30068;50.986;4.564;2023-05-16T03:12:21;102097.03;;;22.22;52.85
44349;BME280;30068;50.986;4.564;2023-05-16T03:14:46;102091.94;;;22.19;52.71
44349;BME280;30068;50.986;4.564;2023-05-16T03:17:12;102098.06;;;22.21;52.54
44349;BME280;30068;50.986;4.564;2023-05-16T03:19:37;102098.38;;;22.18;52.70
44349;BME280;30068;50.986;4.564;2023-05-16T03:22:02;102098.06;;;22.21;52.71
44349;BME280;30068;50.986;4.564;2023-05-16T03:24:28;102098.38;;;22.18;52.69
44349;BME280;30068;50.986;4.564;2023-05-16T03:26:53;102097.53;;;22.18;52.63
44349;BME280;30068;50.986;4.564;2023-05-16T03:29:18;102092.47;;;22.15;52.64
44349;BME280;30068;50.986;4.564;2023-05-16T03:31:44;102097.72;;;22.16;52.83
44349;BME280;30068;50.986;4.564;2023-05-16T03:34:09;102094.31;;;22.14;52.90
44349;BME280;30068;50.986;4.564;2023-05-16T03:36:34;102094.69;;;22.03;53.21
44349;BME280;30068;50.986;4.564;2023-05-16T03:39:00;102089.41;;;22.01;53.13
44349;BME280;30068;50.986;4.564;2023-05-16T03:41:25;102104.16;;;21.83;53.84
44349;BME280;30068;50.986;4.564;2023-05-16T03:43:51;102098.25;;;21.29;55.52
44349;BME280;30068;50.986;4.564;2023-05-16T03:46:16;102108.63;;;21.25;55.43
44349;BME280;30068;50.986;4.564;2023-05-16T03:48:41;102103.56;;;21.39;55.05
44349;BME280;30068;50.986;4.564;2023-05-16T03:51:06;102110.34;;;21.43;54.99
44349;BME280;30068;50.986;4.564;2023-05-16T03:53:32;102109.97;;;21.21;55.80
44349;BME280;30068;50.986;4.564;2023-05-16T03:55:57;102119.28;;;21.19;56.01
44349;BME280;30068;50.986;4.564;2023-05-16T03:58:23;102117.97;;;21.31;56.22
44349;BME280;30068;50.986;4.564;2023-05-16T04:00:49;102114.97;;;21.42;55.65
44349;BME280;30068;50.986;4.564;2023-05-16T04:03:14;102117.31;;;21.45;55.74
44349;BME280;30068;50.986;4.564;2023-05-16T04:05:40;102124.31;;;21.48;55.35
44349;BME280;30068;50.986;4.564;2023-05-16T04:08:05;102126.78;;;21.25;56.48
44349;BME280;30068;50.986;4.564;2023-05-16T04:10:30;102131.19;;;21.26;55.95
44349;BME280;30068;50.986;4.564;2023-05-16T04:12:56;102126.47;;;21.28;56.11
44349;BME280;30068;50.986;4.564;2023-05-16T04:15:21;102134.94;;;21.33;56.12
44349;BME280;30068;50.986;4.564;2023-05-16T04:17:46;102136.69;;;21.42;55.78
44349;BME280;30068;50.986;4.564;2023-05-16T04:20:11;102136.34;;;21.45;55.52
44349;BME280;30068;50.986;4.564;2023-05-16T04:22:37;102134.44;;;21.38;56.14
44349;BME280;30068;50.986;4.564;2023-05-16T04:25:02;102139.38;;;21.34;56.00
44349;BME280;30068;50.986;4.564;2023-05-16T04:27:28;102147.38;;;21.36;55.98
44349;BME280;30068;50.986;4.564;2023-05-16T04:29:54;102149.56;;;21.40;55.80
44349;BME280;30068;50.986;4.564;2023-05-16T04:32:20;102146.22;;;21.54;55.48
44349;BME280;30068;50.986;4.564;2023-05-16T04:34:45;102145.22;;;21.55;55.45
44349;BME280;30068;50.986;4.564;2023-05-16T04:37:12;102148.28;;;21.68;55.25
44349;BME280;30068;50.986;4.564;2023-05-16T04:39:38;102142.72;;;21.86;54.78
44349;BME280;30068;50.986;4.564;2023-05-16T04:42:03;102149.00;;;21.95;54.31
44349;BME280;30068;50.986;4.564;2023-05-16T04:44:29;102147.25;;;21.61;55.31
44349;BME280;30068;50.986;4.564;2023-05-16T04:46:55;102160.47;;;21.56;55.15
44349;BME280;30068;50.986;4.564;2023-05-16T04:49:20;102157.41;;;21.51;55.69
44349;BME280;30068;50.986;4.564;2023-05-16T04:51:46;102162.84;;;21.51;55.74
44349;BME280;30068;50.986;4.564;2023-05-16T04:54:12;102157.94;;;21.55;55.54
44349;BME280;30068;50.986;4.564;2023-05-16T04:56:37;102159.66;;;21.72;55.34
44349;BME280;30068;50.986;4.564;2023-05-16T04:59:02;102158.81;;;21.72;55.45
44349;BME280;30068;50.986;4.564;2023-05-16T05:01:28;102166.66;;;21.83;54.88
44349;BME280;30068;50.986;4.564;2023-05-16T05:03:53;102163.94;;;21.91;54.79
44349;BME280;30068;50.986;4.564;2023-05-16T05:06:19;102162.97;;;22.00;54.43
44349;BME280;30068;50.986;4.564;2023-05-16T05:08:44;102170.78;;;22.11;54.27
44349;BME280;30068;50.986;4.564;2023-05-16T05:11:09;102170.03;;;21.85;54.75
44349;BME280;30068;50.986;4.564;2023-05-16T05:13:35;102168.31;;;21.67;55.48
44349;BME280;30068;50.986;4.564;2023-05-16T05:16:00;102174.78;;;21.66;55.29
44349;BME280;30068;50.986;4.564;2023-05-16T05:18:28;102176.78;;;21.64;55.44
44349;BME280;30068;50.986;4.564;2023-05-16T05:20:53;102169.69;;;21.72;55.24
44349;BME280;30068;50.986;4.564;2023-05-16T05:23:19;102174.28;;;21.79;55.09
44349;BME280;30068;50.986;4.564;2023-05-16T05:25:44;102173.44;;;21.79;55.30
44349;BME280;30068;50.986;4.564;2023-05-16T05:28:10;102179.56;;;21.81;55.29
44349;BME280;30068;50.986;4.564;2023-05-16T05:30:35;102177.69;;;21.81;55.02
44349;BME280;30068;50.986;4.564;2023-05-16T05:33:00;102191.31;;;21.89;54.89
44349;BME280;30068;50.986;4.564;2023-05-16T05:35:26;102184.34;;;21.95;55.00
44349;BME280;30068;50.986;4.564;2023-05-16T05:37:51;102186.75;;;21.98;54.64
44349;BME280;30068;50.986;4.564;2023-05-16T05:40:16;102184.06;;;22.14;54.22
44349;BME280;30068;50.986;4.564;2023-05-16T05:42:42;102186.44;;;22.17;53.98
44349;BME280;30068;50.986;4.564;2023-05-16T05:45:07;102182.69;;;22.26;53.65
44349;BME280;30068;50.986;4.564;2023-05-16T05:49:58;102191.34;;;22.46;53.35
44349;BME280;30068;50.986;4.564;2023-05-16T05:52:23;102196.63;;;22.48;53.21
44349;BME280;30068;50.986;4.564;2023-05-16T05:54:48;102189.31;;;22.56;52.91
44349;BME280;30068;50.986;4.564;2023-05-16T05:57:14;102198.00;;;22.52;52.99
44349;BME280;30068;50.986;4.564;2023-05-16T05:59:39;102195.59;;;22.08;54.29
44349;BME280;30068;50.986;4.564;2023-05-16T06:02:05;102204.22;;;21.95;54.24
44349;BME280;30068;50.986;4.564;2023-05-16T06:04:31;102203.06;;;21.98;54.44
44349;BME280;30068;50.986;4.564;2023-05-16T06:06:57;102205.28;;;22.02;54.29
44349;BME280;30068;50.986;4.564;2023-05-16T06:09:22;102209.56;;;22.21;53.76
44349;BME280;30068;50.986;4.564;2023-05-16T06:11:48;102210.56;;;22.20;53.98
44349;BME280;30068;50.986;4.564;2023-05-16T06:14:13;102217.00;;;22.19;54.03
44349;BME280;30068;50.986;4.564;2023-05-16T06:16:39;102217.38;;;22.24;53.89
44349;BME280;30068;50.986;4.564;2023-05-16T06:19:05;102213.13;;;22.22;53.82
44349;BME280;30068;50.986;4.564;2023-05-16T06:21:30;102216.69;;;22.14;54.08
44349;BME280;30068;50.986;4.564;2023-05-16T06:23:57;102212.59;;;22.18;54.00
44349;BME280;30068;50.986;4.564;2023-05-16T06:26:22;102224.50;;;22.25;53.88
44349;BME280;30068;50.986;4.564;2023-05-16T06:28:48;102223.16;;;22.29;53.76
44349;BME280;30068;50.986;4.564;2023-05-16T06:31:13;102224.88;;;22.30;53.83
44349;BME280;30068;50.986;4.564;2023-05-16T06:33:39;102221.09;;;22.31;53.63
44349;BME280;30068;50.986;4.564;2023-05-16T06:36:04;102229.09;;;22.25;53.73
44349;BME280;30068;50.986;4.564;2023-05-16T06:38:30;102226.91;;;22.36;53.41
44349;BME280;30068;50.986;4.564;2023-05-16T06:40:55;102225.88;;;22.37;53.49
44349;BME280;30068;50.986;4.564;2023-05-16T06:43:20;102235.56;;;22.40;53.46
44349;BME280;30068;50.986;4.564;2023-05-16T06:45:46;102241.16;;;22.46;53.41
44349;BME280;30068;50.986;4.564;2023-05-16T06:48:12;102240.34;;;22.38;53.35
44349;BME280;30068;50.986;4.564;2023-05-16T06:50:37;102244.91;;;22.29;53.55
44349;BME280;30068;50.986;4.564;2023-05-16T06:53:02;102237.41;;;22.15;54.00
44349;BME280;30068;50.986;4.564;2023-05-16T06:55:29;102242.34;;;22.28;53.86
44349;BME280;30068;50.986;4.564;2023-05-16T06:57:54;102238.44;;;22.38;53.36
44349;BME280;30068;50.986;4.564;2023-05-16T07:00:19;102239.47;;;22.45;53.10
44349;BME280;30068;50.986;4.564;2023-05-16T07:02:45;102236.41;;;22.40;53.10
44349;BME280;30068;50.986;4.564;2023-05-16T07:05:10;102242.03;;;22.47;53.12
44349;BME280;30068;50.986;4.564;2023-05-16T07:07:35;102236.25;;;22.50;53.02
44349;BME280;30068;50.986;4.564;2023-05-16T07:10:01;102241.69;;;22.50;52.88
44349;BME280;30068;50.986;4.564;2023-05-16T07:12:26;102237.59;;;22.54;52.82
44349;BME280;30068;50.986;4.564;2023-05-16T07:14:52;102236.75;;;22.54;52.93
44349;BME280;30068;50.986;4.564;2023-05-16T07:17:17;102244.25;;;22.52;52.90
44349;BME280;30068;50.986;4.564;2023-05-16T07:19:42;102242.00;;;22.39;53.38
44349;BME280;30068;50.986;4.564;2023-05-16T07:22:08;102251.22;;;22.30;53.53
44349;BME280;30068;50.986;4.564;2023-05-16T07:24:33;102254.44;;;22.33;53.06
44349;BME280;30068;50.986;4.564;2023-05-16T07:26:58;102253.25;;;22.36;52.67
44349;BME280;30068;50.986;4.564;2023-05-16T07:29:24;102251.00;;;22.31;52.94
44349;BME280;30068;50.986;4.564;2023-05-16T07:31:49;102253.06;;;22.45;52.72
44349;BME280;30068;50.986;4.564;2023-05-16T07:34:14;102253.25;;;22.44;52.57
44349;BME280;30068;50.986;4.564;2023-05-16T07:36:40;102254.94;;;22.45;52.73
44349;BME280;30068;50.986;4.564;2023-05-16T07:39:05;102258.03;;;22.50;52.46
44349;BME280;30068;50.986;4.564;2023-05-16T07:41:31;102255.47;;;22.57;52.10
44349;BME280;30068;50.986;4.564;2023-05-16T07:43:56;102253.44;;;22.51;52.26
44349;BME280;30068;50.986;4.564;2023-05-16T07:46:21;102252.75;;;22.49;52.40
44349;BME280;30068;50.986;4.564;2023-05-16T07:48:47;102252.91;;;22.47;52.42
44349;BME280;30068;50.986;4.564;2023-05-16T07:51:12;102258.53;;;22.37;52.54
44349;BME280;30068;50.986;4.564;2023-05-16T07:53:37;102257.31;;;22.40;52.39
44349;BME280;30068;50.986;4.564;2023-05-16T07:56:02;102260.06;;;22.48;52.32
44349;BME280;30068;50.986;4.564;2023-05-16T07:58:28;102260.56;;;22.52;52.43
44349;BME280;30068;50.986;4.564;2023-05-16T08:00:53;102262.63;;;22.58;52.22
44349;BME280;30068;50.986;4.564;2023-05-16T08:03:18;102261.06;;;22.55;52.22
44349;BME280;30068;50.986;4.564;2023-05-16T08:05:44;102264.47;;;22.49;52.32
44349;BME280;30068;50.986;4.564;2023-05-16T08:08:09;102270.44;;;22.44;52.34
44349;BME280;30068;50.986;4.564;2023-05-16T08:10:34;102262.44;;;22.51;52.41
44349;BME280;30068;50.986;4.564;2023-05-16T08:13:00;102260.06;;;22.56;52.16
44349;BME280;30068;50.986;4.564;2023-05-16T08:15:28;102258.53;;;22.54;52.30
44349;BME280;30068;50.986;4.564;2023-05-16T08:17:57;102258.53;;;22.54;52.45
44349;BME280;30068;50.986;4.564;2023-05-16T08:20:22;102261.56;;;22.59;52.30
44349;BME280;30068;50.986;4.564;2023-05-16T08:22:48;102258.19;;;22.49;52.68
44349;BME280;30068;50.986;4.564;2023-05-16T08:25:13;102262.63;;;22.50;52.48
44349;BME280;30068;50.986;4.564;2023-05-16T08:27:38;102248.50;;;22.54;52.16
44349;BME280;30068;50.986;4.564;2023-05-16T08:30:04;102250.69;;;22.59;52.15
44349;BME280;30068;50.986;4.564;2023-05-16T08:32:29;102250.88;;;22.49;52.43
44349;BME280;30068;50.986;4.564;2023-05-16T08:34:55;102255.47;;;22.57;52.18
44349;BME280;30068;50.986;4.564;2023-05-16T08:37:20;102249.00;;;22.58;52.18
44349;BME280;30068;50.986;4.564;2023-05-16T08:39:45;102253.59;;;22.57;52.11
44349;BME280;30068;50.986;4.564;2023-05-16T08:42:11;102261.25;;;22.62;52.19
44349;BME280;30068;50.986;4.564;2023-05-16T08:44:36;102256.50;;;22.56;52.28
44349;BME280;30068;50.986;4.564;2023-05-16T08:47:04;102261.06;;;22.55;52.18
44349;BME280;30068;50.986;4.564;2023-05-16T08:49:31;102255.81;;;22.62;51.78
44349;BME280;30068;50.986;4.564;2023-05-16T08:51:59;102258.53;;;22.54;52.17
44349;BME280;30068;50.986;4.564;2023-05-16T08:54:26;102256.50;;;22.56;52.00
44349;BME280;30068;50.986;4.564;2023-05-16T08:56:51;102260.41;;;22.61;51.71
44349;BME280;30068;50.986;4.564;2023-05-16T08:59:17;102251.56;;;22.51;51.87
44349;BME280;30068;50.986;4.564;2023-05-16T09:01:43;102254.47;;;22.58;51.89
44349;BME280;30068;50.986;4.564;2023-05-16T09:04:08;102252.38;;;22.60;51.66
44349;BME280;30068;50.986;4.564;2023-05-16T09:06:35;102252.38;;;22.60;51.59
44349;BME280;30068;50.986;4.564;2023-05-16T09:09:00;102253.59;;;22.57;51.87
44349;BME280;30068;50.986;4.564;2023-05-16T09:11:27;102253.41;;;22.59;51.80
44349;BME280;30068;50.986;4.564;2023-05-16T09:13:52;102245.59;;;22.56;51.85
44349;BME280;30068;50.986;4.564;2023-05-16T09:16:18;102249.50;;;22.61;51.63
44349;BME280;30068;50.986;4.564;2023-05-16T09:18:44;102242.38;;;22.60;51.48
44349;BME280;30068;50.986;4.564;2023-05-16T09:21:10;102252.75;;;22.57;51.76
44349;BME280;30068;50.986;4.564;2023-05-16T09:23:35;102244.59;;;22.57;51.51
44349;BME280;30068;50.986;4.564;2023-05-16T09:26:01;102245.59;;;22.56;51.80
44349;BME280;30068;50.986;4.564;2023-05-16T09:28:27;102242.19;;;22.54;51.67
44349;BME280;30068;50.986;4.564;2023-05-16T09:30:52;102242.56;;;22.51;51.72
44349;BME280;30068;50.986;4.564;2023-05-16T09:33:21;102249.00;;;22.50;51.69
44349;BME280;30068;50.986;4.564;2023-05-16T09:35:48;102244.75;;;22.55;51.53
44349;BME280;30068;50.986;4.564;2023-05-16T09:38:18;102242.53;;;22.59;51.55
44349;BME280;30068;50.986;4.564;2023-05-16T09:40:44;102244.44;;;22.58;51.49
44349;BME280;30068;50.986;4.564;2023-05-16T09:43:09;102247.63;;;22.54;51.77
44349;BME280;30068;50.986;4.564;2023-05-16T09:45:35;102248.16;;;22.57;51.72
44349;BME280;30068;50.986;4.564;2023-05-16T09:48:01;102246.09;;;22.59;51.52
44349;BME280;30068;50.986;4.564;2023-05-16T09:50:28;102243.56;;;22.58;51.50
44349;BME280;30068;50.986;4.564;2023-05-16T09:52:53;102250.69;;;22.59;51.37
44349;BME280;30068;50.986;4.564;2023-05-16T09:55:18;102246.09;;;22.59;51.48
44349;BME280;30068;50.986;4.564;2023-05-16T09:57:44;102242.19;;;22.54;51.40
44349;BME280;30068;50.986;4.564;2023-05-16T10:00:10;102247.97;;;22.59;51.50
44349;BME280;30068;50.986;4.564;2023-05-16T10:02:36;102249.88;;;22.58;51.47
44349;BME280;30068;50.986;4.564;2023-05-16T10:05:03;102252.59;;;22.58;51.50
44349;BME280;30068;50.986;4.564;2023-05-16T10:07:29;102249.00;;;22.58;51.63
44349;BME280;30068;50.986;4.564;2023-05-16T10:09:56;102247.94;;;22.18;52.06
44349;BME280;30068;50.986;4.564;2023-05-16T10:12:22;102249.16;;;22.32;39.17
44349;BME280;30068;50.986;4.564;2023-05-16T10:14:51;102247.72;;;21.95;40.39
44349;BME280;30068;50.986;4.564;2023-05-16T10:17:16;102251.16;;;21.04;44.57
44349;BME280;30068;50.986;4.564;2023-05-16T10:19:42;102253.78;;;20.87;46.59
44349;BME280;30068;50.986;4.564;2023-05-16T10:22:08;102248.09;;;20.99;46.81
44349;BME280;30068;50.986;4.564;2023-05-16T10:24:38;102251.16;;;21.04;47.41
44349;BME280;30068;50.986;4.564;2023-05-16T10:27:08;102247.13;;;21.08;48.00
44349;BME280;30068;50.986;4.564;2023-05-16T10:29:33;102249.22;;;21.14;48.96
44349;BME280;30068;50.986;4.564;2023-05-16T10:31:59;102254.53;;;21.23;49.19
44349;BME280;30068;50.986;4.564;2023-05-16T10:34:24;102253.31;;;21.18;49.36
44349;BME280;30068;50.986;4.564;2023-05-16T10:36:49;102255.19;;;21.17;49.67
44349;BME280;30068;50.986;4.564;2023-05-16T10:39:15;102261.19;;;21.29;50.41
44349;BME280;30068;50.986;4.564;2023-05-16T10:41:41;102256.66;;;21.38;50.42
44349;BME280;30068;50.986;4.564;2023-05-16T10:44:11;102242.25;;;21.45;50.68
44349;BME280;30068;50.986;4.564;2023-05-16T10:46:37;102236.53;;;21.56;50.64
44349;BME280;30068;50.986;4.564;2023-05-16T10:49:18;102241.25;;;21.46;51.24
44349;BME280;30068;50.986;4.564;2023-05-16T10:51:44;102236.53;;;21.48;51.53
44349;BME280;30068;50.986;4.564;2023-05-16T10:54:10;102237.75;;;21.62;51.46
44349;BME280;30068;50.986;4.564;2023-05-16T10:56:37;102238.63;;;21.71;51.15
44349;BME280;30068;50.986;4.564;2023-05-16T10:59:02;102234.53;;;21.66;51.54
44349;BME280;30068;50.986;4.564;2023-05-16T11:01:30;102239.84;;;21.76;51.35
44349;BME280;30068;50.986;4.564;2023-05-16T11:06:28;102250.59;;;21.94;51.07
44349;BME280;30068;50.986;4.564;2023-05-16T11:09:04;102260.16;;;22.06;50.77
44349;BME280;30068;50.986;4.564;2023-05-16T11:19:27;102249.16;;;22.40;50.02
44349;BME280;30068;50.986;4.564;2023-05-16T11:24:31;102247.44;;;22.39;50.04
44349;BME280;30068;50.986;4.564;2023-05-16T11:27:00;102248.50;;;22.38;50.18
44349;BME280;30068;50.986;4.564;2023-05-16T11:29:33;102256.16;;;22.42;49.96
44349;BME280;30068;50.986;4.564;2023-05-16T11:31:59;102256.47;;;22.48;49.73
44349;BME280;30068;50.986;4.564;2023-05-16T11:34:24;102249.69;;;22.52;49.54
44349;BME280;30068;50.986;4.564;2023-05-16T11:36:50;102246.47;;;22.56;49.55
44349;BME280;30068;50.986;4.564;2023-05-16T11:39:16;102252.75;;;22.65;49.49
44349;BME280;30068;50.986;4.564;2023-05-16T11:41:43;102251.72;;;22.58;49.64
44349;BME280;30068;50.986;4.564;2023-05-16T11:44:10;102255.13;;;22.68;49.36
44349;BME280;30068;50.986;4.564;2023-05-16T11:46:37;102256.81;;;22.53;49.95
44349;BME280;30068;50.986;4.564;2023-05-16T11:49:03;102257.16;;;22.66;49.50
44349;BME280;30068;50.986;4.564;2023-05-16T11:51:28;102260.91;;;22.65;49.57
44349;BME280;30068;50.986;4.564;2023-05-16T11:53:54;102257.88;;;22.76;49.38
44349;BME280;30068;50.986;4.564;2023-05-16T11:56:19;102258.72;;;22.76;49.43
44349;BME280;30068;50.986;4.564;2023-05-16T11:58:46;102264.66;;;22.80;49.38
44349;BME280;30068;50.986;4.564;2023-05-16T12:01:11;102263.28;;;22.68;49.77
44349;BME280;30068;50.986;4.564;2023-05-16T12:03:36;102256.50;;;22.80;49.46
44349;BME280;30068;50.986;4.564;2023-05-16T12:06:03;102259.75;;;22.83;49.46
44349;BME280;30068;50.986;4.564;2023-05-16T12:08:28;102261.41;;;22.68;49.85
44349;BME280;30068;50.986;4.564;2023-05-16T12:10:54;102261.94;;;22.80;49.57
44349;BME280;30068;50.986;4.564;2023-05-16T12:13:20;102267.38;;;22.80;49.50
44349;BME280;30068;50.986;4.564;2023-05-16T12:15:46;102261.94;;;22.80;49.25
44349;BME280;30068;50.986;4.564;2023-05-16T12:18:12;102258.03;;;22.82;49.36
44349;BME280;30068;50.986;4.564;2023-05-16T12:20:38;102257.50;;;22.87;49.42
44349;BME280;30068;50.986;4.564;2023-05-16T12:23:04;102271.66;;;22.74;41.58
44349;BME280;30068;50.986;4.564;2023-05-16T12:25:33;102264.50;;;21.91;40.50
44349;BME280;30068;50.986;4.564;2023-05-16T12:28:05;102261.53;;;22.18;41.21
44349;BME280;30068;50.986;4.564;2023-05-16T12:30:32;102269.59;;;21.86;43.10
44349;BME280;30068;50.986;4.564;2023-05-16T12:32:58;102267.72;;;21.86;43.71
44349;BME280;30068;50.986;4.564;2023-05-16T12:35:24;102261.19;;;21.97;43.93
44349;BME280;30068;50.986;4.564;2023-05-16T12:37:49;102265.03;;;21.94;44.79
44349;BME280;30068;50.986;4.564;2023-05-16T12:40:17;102265.75;;;22.04;45.12
44349;BME280;30068;50.986;4.564;2023-05-16T12:42:44;102265.94;;;22.11;45.16
44349;BME280;30068;50.986;4.564;2023-05-16T12:45:13;102254.59;;;22.24;45.48
44349;BME280;30068;50.986;4.564;2023-05-16T12:47:40;102254.22;;;22.19;46.04
44349;BME280;30068;50.986;4.564;2023-05-16T12:50:09;102268.34;;;22.22;46.15
44349;BME280;30068;50.986;4.564;2023-05-16T12:52:35;102256.13;;;22.26;46.19
44349;BME280;30068;50.986;4.564;2023-05-16T12:55:01;102258.84;;;22.34;46.68
44349;BME280;30068;50.986;4.564;2023-05-16T12:57:26;102258.53;;;22.37;46.71
44349;BME280;30068;50.986;4.564;2023-05-16T12:59:52;102261.06;;;22.39;47.11
44349;BME280;30068;50.986;4.564;2023-05-16T13:02:17;102265.31;;;22.41;47.47
44349;BME280;30068;50.986;4.564;2023-05-16T13:04:43;102262.44;;;22.43;47.36
44349;BME280;30068;50.986;4.564;2023-05-16T13:07:08;102267.34;;;22.39;47.49
44349;BME280;30068;50.986;4.564;2023-05-16T13:09:33;102259.72;;;22.43;47.91
44349;BME280;30068;50.986;4.564;2023-05-16T13:11:59;102261.91;;;22.48;47.69